sensor_id;sensor_type;location;lat;lon;timestamp;temperature;humidity
45715;DHT22;31430;61.646;24.704;2023-02-19T00:00:00;-3.40;99.90
45715;DHT22;31430;61.646;24.704;2023-02-19T00:02:26;-3.30;99.90
45715;DHT22;31430;61.646;24.704;2023-02-19T00:04:52;-3.40;99.90
45715;DHT22;31430;61.646;24.704;2023-02-19T00:07:17;-3.40;99.90
45715;DHT22;31430;61.646;24.704;2023-02-19T00:09:43;-3.40;99.90
45715;DHT22;31430;61.646;24.704;2023-02-19T00:12:09;-3.40;99.90
45715;DHT22;31430;61.646;24.704;2023-02-19T00:14:34;-3.40;99.90
45715;DHT22;31430;61.646;24.704;2023-02-19T00:17:00;-3.40;99.90
45715;DHT22;31430;61.646;24.704;2023-02-19T00:19:27;-3.50;99.90
45715;DHT22;31430;61.646;24.704;2023-02-19T00:21:53;-3.50;99.90
45715;DHT22;31430;61.646;24.704;2023-02-19T00:24:19;-3.60;99.90
45715;DHT22;31430;61.646;24.704;2023-02-19T00:26:46;-3.70;99.90
45715;DHT22;31430;61.646;24.704;2023-02-19T00:29:14;-3.70;99.90
45715;DHT22;31430;61.646;24.704;2023-02-19T00:31:40;-3.80;99.90
45715;DHT22;31430;61.646;24.704;2023-02-19T00:34:06;-3.70;99.90
45715;DHT22;31430;61.646;24.704;2023-02-19T00:36:33;-3.70;99.90
45715;DHT22;31430;61.646;24.704;2023-02-19T00:39:01;-3.70;99.90
45715;DHT22;31430;61.646;24.704;2023-02-19T00:41:27;-3.70;99.90
45715;DHT22;31430;61.646;24.704;2023-02-19T00:46:28;-3.60;99.90
45715;DHT22;31430;61.646;24.704;2023-02-19T00:48:55;-3.70;99.90
45715;DHT22;31430;61.646;24.704;2023-02-19T00:51:22;-3.70;99.90
45715;DHT22;31430;61.646;24.704;2023-02-19T00:53:48;-3.70;99.90
45715;DHT22;31430;61.646;24.704;2023-02-19T00:56:14;-3.70;99.90
45715;DHT22;31430;61.646;24.704;2023-02-19T00:58:40;-3.70;99.90
45715;DHT22;31430;61.646;24.704;2023-02-19T01:01:09;-3.50;99.90
45715;DHT22;31430;61.646;24.704;2023-02-19T01:03:36;-3.60;99.90
45715;DHT22;31430;61.646;24.704;2023-02-19T01:06:03;-3.50;99.90
45715;DHT22;31430;61.646;24.704;2023-02-19T01:08:30;-3.60;99.90
45715;DHT22;31430;61.646;24.704;2023-02-19T01:10:57;-3.60;99.90
45715;DHT22;31430;61.646;24.704;2023-02-19T01:13:23;-3.50;99.90
45715;DHT22;31430;61.646;24.704;2023-02-19T01:15:48;-3.50;99.90
45715;DHT22;31430;61.646;24.704;2023-02-19T01:18:14;-3.50;99.90
45715;DHT22;31430;61.646;24.704;2023-02-19T01:20:41;-3.50;99.90
45715;DHT22;31430;61.646;24.704;2023-02-19T01:23:10;-3.40;99.90
45715;DHT22;31430;61.646;24.704;2023-02-19T01:25:40;-3.40;99.90
45715;DHT22;31430;61.646;24.704;2023-02-19T01:28:07;-3.40;99.90
45715;DHT22;31430;61.646;24.704;2023-02-19T01:30:36;-3.40;99.90
45715;DHT22;31430;61.646;24.704;2023-02-19T01:33:04;-3.40;99.90
45715;DHT22;31430;61.646;24.704;2023-02-19T01:35:30;-3.40;99.90
45715;DHT22;31430;61.646;24.704;2023-02-19T01:37:56;-3.40;99.90
45715;DHT22;31430;61.646;24.704;2023-02-19T01:40:21;-3.40;99.90
45715;DHT22;31430;61.646;24.704;2023-02-19T01:42:47;-3.40;99.90
45715;DHT22;31430;61.646;24.704;2023-02-19T01:45:25;-3.40;99.90
45715;DHT22;31430;61.646;24.704;2023-02-19T01:47:59;-3.50;99.90
45715;DHT22;31430;61.646;24.704;2023-02-19T01:50:28;-3.40;99.90
45715;DHT22;31430;61.646;24.704;2023-02-19T01:52:54;-3.40;99.90
45715;DHT22;31430;61.646;24.704;2023-02-19T01:55:21;-3.40;99.90
45715;DHT22;31430;61.646;24.704;2023-02-19T01:57:51;-3.40;99.90
45715;DHT22;31430;61.646;24.704;2023-02-19T02:00:17;-3.50;99.90
45715;DHT22;31430;61.646;24.704;2023-02-19T02:02:44;-3.40;99.90
45715;DHT22;31430;61.646;24.704;2023-02-19T02:05:22;-3.40;99.90
45715;DHT22;31430;61.646;24.704;2023-02-19T02:07:49;-3.40;99.90
45715;DHT22;31430;61.646;24.704;2023-02-19T02:10:33;-3.50;99.90
45715;DHT22;31430;61.646;24.704;2023-02-19T02:12:59;-3.50;99.90
45715;DHT22;31430;61.646;24.704;2023-02-19T02:15:33;-3.50;99.90
45715;DHT22;31430;61.646;24.704;2023-02-19T02:32:53;-3.40;99.90
45715;DHT22;31430;61.646;24.704;2023-02-19T02:35:24;-3.40;99.90
45715;DHT22;31430;61.646;24.704;2023-02-19T02:37:54;-3.50;99.90
45715;DHT22;31430;61.646;24.704;2023-02-19T02:40:21;-3.50;99.90
45715;DHT22;31430;61.646;24.704;2023-02-19T02:42:47;-3.50;99.90
45715;DHT22;31430;61.646;24.704;2023-02-19T02:45:25;-3.60;99.90
45715;DHT22;31430;61.646;24.704;2023-02-19T02:48:12;-3.50;99.90
45715;DHT22;31430;61.646;24.704;2023-02-19T02:50:51;-3.50;99.90
45715;DHT22;31430;61.646;24.704;2023-02-19T02:56:09;-3.50;99.90
45715;DHT22;31430;61.646;24.704;2023-02-19T02:58:35;-3.50;99.90
45715;DHT22;31430;61.646;24.704;2023-02-19T03:01:08;-3.60;99.90
45715;DHT22;31430;61.646;24.704;2023-02-19T03:04:02;-3.40;99.90
45715;DHT22;31430;61.646;24.704;2023-02-19T03:06:31;-3.50;99.90
45715;DHT22;31430;61.646;24.704;2023-02-19T03:11:39;-3.50;99.90
45715;DHT22;31430;61.646;24.704;2023-02-19T03:14:42;-3.60;99.90
45715;DHT22;31430;61.646;24.704;2023-02-19T03:17:38;-3.50;99.90
45715;DHT22;31430;61.646;24.704;2023-02-19T03:20:23;-3.50;99.90
45715;DHT22;31430;61.646;24.704;2023-02-19T03:22:51;-3.60;99.90
45715;DHT22;31430;61.646;24.704;2023-02-19T03:25:24;-3.60;99.90
45715;DHT22;31430;61.646;24.704;2023-02-19T03:28:11;-3.50;99.90
45715;DHT22;31430;61.646;24.704;2023-02-19T03:30:44;-3.60;99.90
45715;DHT22;31430;61.646;24.704;2023-02-19T03:33:16;-3.60;99.90
45715;DHT22;31430;61.646;24.704;2023-02-19T03:35:52;-3.60;99.90
45715;DHT22;31430;61.646;24.704;2023-02-19T03:41:09;-3.70;99.90
45715;DHT22;31430;61.646;24.704;2023-02-19T03:43:49;-3.60;99.90
45715;DHT22;31430;61.646;24.704;2023-02-19T03:49:14;-3.60;99.90
45715;DHT22;31430;61.646;24.704;2023-02-19T03:51:54;-3.60;99.90
45715;DHT22;31430;61.646;24.704;2023-02-19T03:57:06;-3.70;99.90
45715;DHT22;31430;61.646;24.704;2023-02-19T04:05:18;-3.80;99.90
45715;DHT22;31430;61.646;24.704;2023-02-19T04:07:48;-3.80;99.90
45715;DHT22;31430;61.646;24.704;2023-02-19T04:10:16;-3.70;99.90
45715;DHT22;31430;61.646;24.704;2023-02-19T04:12:49;-3.70;99.90
45715;DHT22;31430;61.646;24.704;2023-02-19T04:15:21;-3.70;99.90
45715;DHT22;31430;61.646;24.704;2023-02-19T04:17:50;-3.60;99.90
45715;DHT22;31430;61.646;24.704;2023-02-19T04:20:20;-3.70;99.90
45715;DHT22;31430;61.646;24.704;2023-02-19T04:22:47;-3.70;99.90
45715;DHT22;31430;61.646;24.704;2023-02-19T04:25:13;-3.60;99.90
45715;DHT22;31430;61.646;24.704;2023-02-19T04:27:39;-3.60;99.90
45715;DHT22;31430;61.646;24.704;2023-02-19T04:30:07;-3.60;99.90
45715;DHT22;31430;61.646;24.704;2023-02-19T04:32:33;-3.60;99.90
45715;DHT22;31430;61.646;24.704;2023-02-19T04:34:59;-3.60;99.90
45715;DHT22;31430;61.646;24.704;2023-02-19T04:37:24;-3.60;99.90
45715;DHT22;31430;61.646;24.704;2023-02-19T04:39:50;-3.60;99.90
45715;DHT22;31430;61.646;24.704;2023-02-19T04:42:16;-3.70;99.90
45715;DHT22;31430;61.646;24.704;2023-02-19T04:44:41;-3.70;99.90
45715;DHT22;31430;61.646;24.704;2023-02-19T04:47:07;-3.70;99.90
45715;DHT22;31430;61.646;24.704;2023-02-19T04:49:32;-3.70;99.90
45715;DHT22;31430;61.646;24.704;2023-02-19T04:51:58;-3.80;99.90
45715;DHT22;31430;61.646;24.704;2023-02-19T04:54:24;-3.80;99.90
45715;DHT22;31430;61.646;24.704;2023-02-19T04:56:49;-3.80;99.90
45715;DHT22;31430;61.646;24.704;2023-02-19T04:59:15;-3.90;99.90
45715;DHT22;31430;61.646;24.704;2023-02-19T05:01:41;-4.00;99.90
45715;DHT22;31430;61.646;24.704;2023-02-19T05:04:07;-4.00;99.90
45715;DHT22;31430;61.646;24.704;2023-02-19T05:06:35;-4.10;99.90
45715;DHT22;31430;61.646;24.704;2023-02-19T05:09:01;-4.10;99.90
45715;DHT22;31430;61.646;24.704;2023-02-19T05:11:27;-4.20;99.90
45715;DHT22;31430;61.646;24.704;2023-02-19T05:13:54;-4.30;99.90
45715;DHT22;31430;61.646;24.704;2023-02-19T05:16:20;-4.20;99.90
45715;DHT22;31430;61.646;24.704;2023-02-19T05:18:46;-4.30;99.90
45715;DHT22;31430;61.646;24.704;2023-02-19T05:21:12;-4.20;99.90
45715;DHT22;31430;61.646;24.704;2023-02-19T05:23:38;-4.30;99.90
45715;DHT22;31430;61.646;24.704;2023-02-19T05:26:10;-4.40;99.90
45715;DHT22;31430;61.646;24.704;2023-02-19T05:28:36;-4.50;99.90
45715;DHT22;31430;61.646;24.704;2023-02-19T05:31:07;-4.50;99.90
45715;DHT22;31430;61.646;24.704;2023-02-19T05:33:33;-4.60;99.90
45715;DHT22;31430;61.646;24.704;2023-02-19T05:36:06;-4.60;99.90
45715;DHT22;31430;61.646;24.704;2023-02-19T05:38:32;-4.70;99.90
45715;DHT22;31430;61.646;24.704;2023-02-19T05:41:14;-4.70;99.90
45715;DHT22;31430;61.646;24.704;2023-02-19T05:43:42;-4.80;99.90
45715;DHT22;31430;61.646;24.704;2023-02-19T05:46:10;-4.80;99.90
45715;DHT22;31430;61.646;24.704;2023-02-19T05:48:36;-4.80;99.90
45715;DHT22;31430;61.646;24.704;2023-02-19T05:51:10;-4.80;99.90
45715;DHT22;31430;61.646;24.704;2023-02-19T05:53:37;-4.80;99.90
45715;DHT22;31430;61.646;24.704;2023-02-19T05:56:03;-4.80;99.90
45715;DHT22;31430;61.646;24.704;2023-02-19T05:58:29;-4.80;99.90
45715;DHT22;31430;61.646;24.704;2023-02-19T06:00:55;-4.80;99.90
45715;DHT22;31430;61.646;24.704;2023-02-19T06:03:21;-4.70;99.90
45715;DHT22;31430;61.646;24.704;2023-02-19T06:05:47;-4.60;99.90
45715;DHT22;31430;61.646;24.704;2023-02-19T06:08:14;-4.70;99.90
45715;DHT22;31430;61.646;24.704;2023-02-19T06:10:40;-4.70;99.90
45715;DHT22;31430;61.646;24.704;2023-02-19T06:13:08;-4.60;99.90
45715;DHT22;31430;61.646;24.704;2023-02-19T06:15:35;-4.60;99.90
45715;DHT22;31430;61.646;24.704;2023-02-19T06:18:01;-4.60;99.90
45715;DHT22;31430;61.646;24.704;2023-02-19T06:20:27;-4.60;99.90
45715;DHT22;31430;61.646;24.704;2023-02-19T06:22:53;-4.60;99.90
45715;DHT22;31430;61.646;24.704;2023-02-19T06:25:18;-4.60;99.90
45715;DHT22;31430;61.646;24.704;2023-02-19T06:27:44;-4.50;99.90
45715;DHT22;31430;61.646;24.704;2023-02-19T06:30:10;-4.40;99.90
45715;DHT22;31430;61.646;24.704;2023-02-19T06:32:36;-4.40;99.90
45715;DHT22;31430;61.646;24.704;2023-02-19T06:35:02;-4.40;99.90
45715;DHT22;31430;61.646;24.704;2023-02-19T06:37:29;-4.40;99.90
45715;DHT22;31430;61.646;24.704;2023-02-19T06:39:55;-4.40;99.90
45715;DHT22;31430;61.646;24.704;2023-02-19T06:42:20;-4.50;99.90
45715;DHT22;31430;61.646;24.704;2023-02-19T06:44:46;-4.50;99.90
45715;DHT22;31430;61.646;24.704;2023-02-19T06:47:12;-4.40;99.90
45715;DHT22;31430;61.646;24.704;2023-02-19T06:49:40;-4.40;99.90
45715;DHT22;31430;61.646;24.704;2023-02-19T06:52:06;-4.20;99.90
45715;DHT22;31430;61.646;24.704;2023-02-19T06:54:32;-4.10;99.90
45715;DHT22;31430;61.646;24.704;2023-02-19T06:56:58;-4.10;99.90
45715;DHT22;31430;61.646;24.704;2023-02-19T06:59:25;-4.10;99.90
45715;DHT22;31430;61.646;24.704;2023-02-19T07:01:51;-4.10;99.90
45715;DHT22;31430;61.646;24.704;2023-02-19T07:04:17;-4.10;99.90
45715;DHT22;31430;61.646;24.704;2023-02-19T07:06:42;-4.00;99.90
45715;DHT22;31430;61.646;24.704;2023-02-19T07:09:09;-4.00;99.90
45715;DHT22;31430;61.646;24.704;2023-02-19T07:11:37;-4.00;99.90
45715;DHT22;31430;61.646;24.704;2023-02-19T07:14:05;-4.00;99.90
45715;DHT22;31430;61.646;24.704;2023-02-19T07:16:34;-4.00;99.90
45715;DHT22;31430;61.646;24.704;2023-02-19T07:19:01;-4.00;99.90
45715;DHT22;31430;61.646;24.704;2023-02-19T07:21:27;-4.00;99.90
45715;DHT22;31430;61.646;24.704;2023-02-19T07:23:53;-3.90;99.90
45715;DHT22;31430;61.646;24.704;2023-02-19T07:26:19;-3.70;99.90
45715;DHT22;31430;61.646;24.704;2023-02-19T07:28:50;-3.50;99.90
45715;DHT22;31430;61.646;24.704;2023-02-19T07:31:18;-3.70;99.90
45715;DHT22;31430;61.646;24.704;2023-02-19T07:33:46;-3.80;99.90
45715;DHT22;31430;61.646;24.704;2023-02-19T07:36:13;-3.80;99.90
45715;DHT22;31430;61.646;24.704;2023-02-19T07:38:39;-3.60;99.90
45715;DHT22;31430;61.646;24.704;2023-02-19T07:41:05;-3.60;99.90
45715;DHT22;31430;61.646;24.704;2023-02-19T07:43:33;-3.70;99.90
45715;DHT22;31430;61.646;24.704;2023-02-19T07:46:08;-3.80;99.90
45715;DHT22;31430;61.646;24.704;2023-02-19T07:48:35;-3.70;99.90
45715;DHT22;31430;61.646;24.704;2023-02-19T07:51:02;-3.70;99.90
45715;DHT22;31430;61.646;24.704;2023-02-19T07:53:29;-3.60;99.90
45715;DHT22;31430;61.646;24.704;2023-02-19T07:55:59;-3.70;99.90
45715;DHT22;31430;61.646;24.704;2023-02-19T07:58:26;-3.70;99.90
45715;DHT22;31430;61.646;24.704;2023-02-19T08:00:51;-3.70;99.90
45715;DHT22;31430;61.646;24.704;2023-02-19T08:03:17;-3.60;99.90
45715;DHT22;31430;61.646;24.704;2023-02-19T08:05:42;-3.50;99.90
45715;DHT22;31430;61.646;24.704;2023-02-19T08:08:11;-3.50;99.90
45715;DHT22;31430;61.646;24.704;2023-02-19T08:10:37;-3.40;99.90
45715;DHT22;31430;61.646;24.704;2023-02-19T08:13:22;-3.20;99.90
45715;DHT22;31430;61.646;24.704;2023-02-19T08:15:49;-3.20;99.90
45715;DHT22;31430;61.646;24.704;2023-02-19T08:18:18;-3.20;99.90
45715;DHT22;31430;61.646;24.704;2023-02-19T08:20:44;-3.10;99.90
45715;DHT22;31430;61.646;24.704;2023-02-19T08:23:10;-2.90;99.90
45715;DHT22;31430;61.646;24.704;2023-02-19T08:25:36;-2.80;99.90
45715;DHT22;31430;61.646;24.704;2023-02-19T08:28:03;-2.50;99.90
45715;DHT22;31430;61.646;24.704;2023-02-19T08:30:30;-2.80;99.90
45715;DHT22;31430;61.646;24.704;2023-02-19T08:33:00;-2.70;99.90
45715;DHT22;31430;61.646;24.704;2023-02-19T08:35:26;-2.30;99.90
45715;DHT22;31430;61.646;24.704;2023-02-19T08:37:56;-2.10;99.90
45715;DHT22;31430;61.646;24.704;2023-02-19T08:40:23;-2.20;99.90
45715;DHT22;31430;61.646;24.704;2023-02-19T08:42:49;-2.20;99.90
45715;DHT22;31430;61.646;24.704;2023-02-19T08:45:15;-2.10;99.90
45715;DHT22;31430;61.646;24.704;2023-02-19T08:47:40;-2.20;99.90
45715;DHT22;31430;61.646;24.704;2023-02-19T08:50:07;-2.80;99.90
45715;DHT22;31430;61.646;24.704;2023-02-19T08:52:33;-3.10;99.90
45715;DHT22;31430;61.646;24.704;2023-02-19T08:55:00;-3.50;99.90
45715;DHT22;31430;61.646;24.704;2023-02-19T08:57:25;-3.60;99.90
45715;DHT22;31430;61.646;24.704;2023-02-19T08:59:56;-3.70;99.90
45715;DHT22;31430;61.646;24.704;2023-02-19T09:02:22;-3.80;99.90
45715;DHT22;31430;61.646;24.704;2023-02-19T09:04:48;-3.80;99.90
45715;DHT22;31430;61.646;24.704;2023-02-19T09:07:15;-3.70;99.90
45715;DHT22;31430;61.646;24.704;2023-02-19T09:09:41;-3.60;99.90
45715;DHT22;31430;61.646;24.704;2023-02-19T09:12:08;-3.50;99.90
45715;DHT22;31430;61.646;24.704;2023-02-19T09:14:34;-3.60;99.90
45715;DHT22;31430;61.646;24.704;2023-02-19T09:17:01;-3.50;99.90
45715;DHT22;31430;61.646;24.704;2023-02-19T09:19:28;-3.20;99.90
45715;DHT22;31430;61.646;24.704;2023-02-19T09:21:54;-3.00;99.90
45715;DHT22;31430;61.646;24.704;2023-02-19T09:24:20;-3.10;99.90
45715;DHT22;31430;61.646;24.704;2023-02-19T09:26:52;-2.90;99.90
45715;DHT22;31430;61.646;24.704;2023-02-19T09:29:18;-3.10;99.90
45715;DHT22;31430;61.646;24.704;2023-02-19T09:31:44;-3.40;99.90
45715;DHT22;31430;61.646;24.704;2023-02-19T09:34:10;-3.00;99.90
45715;DHT22;31430;61.646;24.704;2023-02-19T09:36:39;-2.80;99.90
45715;DHT22;31430;61.646;24.704;2023-02-19T09:39:06;-2.80;99.90
45715;DHT22;31430;61.646;24.704;2023-02-19T09:41:36;-2.80;99.90
45715;DHT22;31430;61.646;24.704;2023-02-19T09:44:05;-2.70;99.90
45715;DHT22;31430;61.646;24.704;2023-02-19T09:46:46;-2.50;99.90
45715;DHT22;31430;61.646;24.704;2023-02-19T09:51:59;-2.60;99.90
45715;DHT22;31430;61.646;24.704;2023-02-19T09:54:29;-2.90;99.90
45715;DHT22;31430;61.646;24.704;2023-02-19T09:57:00;-2.60;99.90
45715;DHT22;31430;61.646;24.704;2023-02-19T09:59:41;-2.20;99.90
45715;DHT22;31430;61.646;24.704;2023-02-19T10:04:41;-2.40;99.90
45715;DHT22;31430;61.646;24.704;2023-02-19T10:07:15;-2.40;99.90
45715;DHT22;31430;61.646;24.704;2023-02-19T10:09:44;-2.50;99.90
45715;DHT22;31430;61.646;24.704;2023-02-19T10:12:14;-2.40;99.90
45715;DHT22;31430;61.646;24.704;2023-02-19T10:14:46;-2.40;99.90
45715;DHT22;31430;61.646;24.704;2023-02-19T10:17:29;-2.40;99.90
45715;DHT22;31430;61.646;24.704;2023-02-19T10:19:56;-2.20;99.90
45715;DHT22;31430;61.646;24.704;2023-02-19T10:22:23;-2.20;99.90
45715;DHT22;31430;61.646;24.704;2023-02-19T10:24:53;-2.30;99.90
45715;DHT22;31430;61.646;24.704;2023-02-19T10:27:19;-1.90;99.90
45715;DHT22;31430;61.646;24.704;2023-02-19T10:29:45;-2.00;99.90
45715;DHT22;31430;61.646;24.704;2023-02-19T10:32:20;-2.00;99.90
45715;DHT22;31430;61.646;24.704;2023-02-19T10:35:10;-1.90;99.90
45715;DHT22;31430;61.646;24.704;2023-02-19T10:37:48;-2.00;99.90
45715;DHT22;31430;61.646;24.704;2023-02-19T10:40:19;-2.20;99.90
45715;DHT22;31430;61.646;24.704;2023-02-19T10:42:48;-2.10;99.90
45715;DHT22;31430;61.646;24.704;2023-02-19T10:45:37;-2.40;99.90
45715;DHT22;31430;61.646;24.704;2023-02-19T10:48:05;-2.50;99.90
45715;DHT22;31430;61.646;24.704;2023-02-19T10:50:34;-2.70;99.90
45715;DHT22;31430;61.646;24.704;2023-02-19T10:53:20;-2.10;99.90
45715;DHT22;31430;61.646;24.704;2023-02-19T10:56:15;-2.40;99.90
45715;DHT22;31430;61.646;24.704;2023-02-19T10:58:42;-2.30;99.90
45715;DHT22;31430;61.646;24.704;2023-02-19T11:01:23;-2.00;99.90
45715;DHT22;31430;61.646;24.704;2023-02-19T11:04:13;-2.10;99.90
45715;DHT22;31430;61.646;24.704;2023-02-19T11:06:40;-1.70;99.90
45715;DHT22;31430;61.646;24.704;2023-02-19T11:09:05;-1.60;99.90
45715;DHT22;31430;61.646;24.704;2023-02-19T11:11:50;-1.50;99.90
45715;DHT22;31430;61.646;24.704;2023-02-19T11:14:21;-1.80;99.90
45715;DHT22;31430;61.646;24.704;2023-02-19T11:16:49;-2.00;99.90
45715;DHT22;31430;61.646;24.704;2023-02-19T11:19:39;-1.90;99.90
45715;DHT22;31430;61.646;24.704;2023-02-19T11:24:52;-2.10;99.90
45715;DHT22;31430;61.646;24.704;2023-02-19T11:27:21;-2.10;99.90
45715;DHT22;31430;61.646;24.704;2023-02-19T11:29:47;-2.10;99.90
45715;DHT22;31430;61.646;24.704;2023-02-19T11:34:45;-1.70;99.90
45715;DHT22;31430;61.646;24.704;2023-02-19T11:37:15;-1.90;99.90
45715;DHT22;31430;61.646;24.704;2023-02-19T11:39:46;-1.90;99.90
45715;DHT22;31430;61.646;24.704;2023-02-19T11:42:41;-1.60;99.90
45715;DHT22;31430;61.646;24.704;2023-02-19T11:45:27;-1.70;99.90
45715;DHT22;31430;61.646;24.704;2023-02-19T11:48:16;-1.90;99.90
45715;DHT22;31430;61.646;24.704;2023-02-19T11:51:10;-1.80;99.90
45715;DHT22;31430;61.646;24.704;2023-02-19T11:53:45;-1.80;99.90
45715;DHT22;31430;61.646;24.704;2023-02-19T11:56:29;-1.80;99.90
45715;DHT22;31430;61.646;24.704;2023-02-19T11:59:15;-1.70;99.90
45715;DHT22;31430;61.646;24.704;2023-02-19T12:13:07;-2.00;99.90
45715;DHT22;31430;61.646;24.704;2023-02-19T12:29:01;-2.20;99.90
45715;DHT22;31430;61.646;24.704;2023-02-19T12:32:09;-2.20;99.90
45715;DHT22;31430;61.646;24.704;2023-02-19T12:45:22;-2.40;99.90
45715;DHT22;31430;61.646;24.704;2023-02-19T12:48:00;-2.50;99.90
45715;DHT22;31430;61.646;24.704;2023-02-19T12:50:29;-2.70;99.90
45715;DHT22;31430;61.646;24.704;2023-02-19T12:55:52;-2.70;99.90
45715;DHT22;31430;61.646;24.704;2023-02-19T12:58:48;-2.90;99.90
45715;DHT22;31430;61.646;24.704;2023-02-19T13:01:21;-2.70;99.90
45715;DHT22;31430;61.646;24.704;2023-02-19T13:09:55;-3.10;99.90
45715;DHT22;31430;61.646;24.704;2023-02-19T13:12:28;-3.10;99.90
45715;DHT22;31430;61.646;24.704;2023-02-19T13:14:57;-3.00;99.90
45715;DHT22;31430;61.646;24.704;2023-02-19T13:17:37;-2.90;99.90
45715;DHT22;31430;61.646;24.704;2023-02-19T13:20:36;-3.20;99.90
45715;DHT22;31430;61.646;24.704;2023-02-19T13:36:53;-3.60;99.90
45715;DHT22;31430;61.646;24.704;2023-02-19T13:39:19;-3.60;99.90
45715;DHT22;31430;61.646;24.704;2023-02-19T13:41:53;-3.80;99.90
45715;DHT22;31430;61.646;24.704;2023-02-19T13:44:23;-3.80;99.90
45715;DHT22;31430;61.646;24.704;2023-02-19T13:46:50;-3.90;99.90
45715;DHT22;31430;61.646;24.704;2023-02-19T13:52:00;-4.10;99.90
45715;DHT22;31430;61.646;24.704;2023-02-19T13:54:29;-4.10;99.90
45715;DHT22;31430;61.646;24.704;2023-02-19T13:59:47;-4.30;99.90
45715;DHT22;31430;61.646;24.704;2023-02-19T14:09:46;-4.20;99.90
45715;DHT22;31430;61.646;24.704;2023-02-19T14:14:41;-4.20;99.90
45715;DHT22;31430;61.646;24.704;2023-02-19T14:19:57;-4.30;99.90
45715;DHT22;31430;61.646;24.704;2023-02-19T14:33:13;-4.40;99.90
45715;DHT22;31430;61.646;24.704;2023-02-19T14:35:42;-4.30;99.90
45715;DHT22;31430;61.646;24.704;2023-02-19T14:38:25;-4.30;99.90
45715;DHT22;31430;61.646;24.704;2023-02-19T14:40:53;-4.40;99.90
45715;DHT22;31430;61.646;24.704;2023-02-19T14:43:22;-4.40;99.90
45715;DHT22;31430;61.646;24.704;2023-02-19T14:46:06;-4.50;99.90
45715;DHT22;31430;61.646;24.704;2023-02-19T14:48:37;-4.50;99.90
45715;DHT22;31430;61.646;24.704;2023-02-19T14:51:11;-4.50;99.90
45715;DHT22;31430;61.646;24.704;2023-02-19T14:53:41;-4.60;99.90
45715;DHT22;31430;61.646;24.704;2023-02-19T14:56:20;-4.60;99.90
45715;DHT22;31430;61.646;24.704;2023-02-19T15:01:36;-4.60;99.90
45715;DHT22;31430;61.646;24.704;2023-02-19T15:04:03;-4.70;99.90
45715;DHT22;31430;61.646;24.704;2023-02-19T15:06:30;-4.80;99.90
45715;DHT22;31430;61.646;24.704;2023-02-19T15:09:03;-4.80;99.90
45715;DHT22;31430;61.646;24.704;2023-02-19T15:11:30;-5.00;99.90
45715;DHT22;31430;61.646;24.704;2023-02-19T15:14:01;-5.00;99.90
45715;DHT22;31430;61.646;24.704;2023-02-19T15:16:29;-5.10;99.90
45715;DHT22;31430;61.646;24.704;2023-02-19T15:18:57;-5.00;99.90
45715;DHT22;31430;61.646;24.704;2023-02-19T15:21:31;-4.90;99.90
45715;DHT22;31430;61.646;24.704;2023-02-19T15:24:00;-5.00;99.90
45715;DHT22;31430;61.646;24.704;2023-02-19T15:26:33;-4.90;99.90
45715;DHT22;31430;61.646;24.704;2023-02-19T15:29:11;-4.90;99.90
45715;DHT22;31430;61.646;24.704;2023-02-19T15:31:47;-4.90;99.90
45715;DHT22;31430;61.646;24.704;2023-02-19T15:34:26;-4.90;99.90
45715;DHT22;31430;61.646;24.704;2023-02-19T15:37:02;-4.80;99.90
45715;DHT22;31430;61.646;24.704;2023-02-19T15:39:33;-5.00;99.90
45715;DHT22;31430;61.646;24.704;2023-02-19T15:42:01;-5.00;99.90
45715;DHT22;31430;61.646;24.704;2023-02-19T15:50:14;-5.20;99.90
45715;DHT22;31430;61.646;24.704;2023-02-19T15:57:58;-5.20;99.90
45715;DHT22;31430;61.646;24.704;2023-02-19T16:00:59;-5.30;99.90
45715;DHT22;31430;61.646;24.704;2023-02-19T16:03:27;-5.20;99.90
45715;DHT22;31430;61.646;24.704;2023-02-19T16:08:36;-5.10;99.90
45715;DHT22;31430;61.646;24.704;2023-02-19T16:11:05;-5.10;99.90
45715;DHT22;31430;61.646;24.704;2023-02-19T16:13:33;-5.20;99.90
45715;DHT22;31430;61.646;24.704;2023-02-19T16:16:03;-5.20;99.90
45715;DHT22;31430;61.646;24.704;2023-02-19T16:18:30;-5.20;99.90
45715;DHT22;31430;61.646;24.704;2023-02-19T16:20:56;-5.30;99.90
45715;DHT22;31430;61.646;24.704;2023-02-19T16:23:22;-5.30;99.90
45715;DHT22;31430;61.646;24.704;2023-02-19T16:26:00;-5.30;99.90
45715;DHT22;31430;61.646;24.704;2023-02-19T16:28:27;-5.20;99.90
45715;DHT22;31430;61.646;24.704;2023-02-19T16:31:00;-5.20;99.90
45715;DHT22;31430;61.646;24.704;2023-02-19T16:33:33;-5.10;99.90
45715;DHT22;31430;61.646;24.704;2023-02-19T16:49:29;-5.20;99.90
45715;DHT22;31430;61.646;24.704;2023-02-19T16:51:57;-5.30;99.90
45715;DHT22;31430;61.646;24.704;2023-02-19T16:54:24;-5.30;99.90
45715;DHT22;31430;61.646;24.704;2023-02-19T16:56:49;-5.40;99.90
45715;DHT22;31430;61.646;24.704;2023-02-19T16:59:15;-5.50;99.90
45715;DHT22;31430;61.646;24.704;2023-02-19T17:01:41;-5.60;99.90
45715;DHT22;31430;61.646;24.704;2023-02-19T17:04:10;-5.70;99.90
45715;DHT22;31430;61.646;24.704;2023-02-19T17:06:37;-5.80;99.90
45715;DHT22;31430;61.646;24.704;2023-02-19T17:09:04;-5.70;99.90
45715;DHT22;31430;61.646;24.704;2023-02-19T17:11:31;-5.90;99.90
45715;DHT22;31430;61.646;24.704;2023-02-19T17:13:56;-5.90;99.90
45715;DHT22;31430;61.646;24.704;2023-02-19T17:16:28;-5.90;99.90
45715;DHT22;31430;61.646;24.704;2023-02-19T17:18:56;-6.00;99.90
45715;DHT22;31430;61.646;24.704;2023-02-19T17:21:28;-6.10;99.90
45715;DHT22;31430;61.646;24.704;2023-02-19T17:23:55;-6.10;99.90
45715;DHT22;31430;61.646;24.704;2023-02-19T17:26:26;-6.20;99.90
45715;DHT22;31430;61.646;24.704;2023-02-19T17:28:52;-6.20;99.90
45715;DHT22;31430;61.646;24.704;2023-02-19T17:31:18;-6.20;99.90
45715;DHT22;31430;61.646;24.704;2023-02-19T17:33:44;-6.10;99.90
45715;DHT22;31430;61.646;24.704;2023-02-19T17:36:16;-6.10;99.90
45715;DHT22;31430;61.646;24.704;2023-02-19T17:38:42;-6.10;99.90
45715;DHT22;31430;61.646;24.704;2023-02-19T17:41:08;-6.00;99.90
45715;DHT22;31430;61.646;24.704;2023-02-19T17:43:34;-5.90;99.90
45715;DHT22;31430;61.646;24.704;2023-02-19T17:45:59;-5.90;99.90
45715;DHT22;31430;61.646;24.704;2023-02-19T17:48:25;-5.90;99.90
45715;DHT22;31430;61.646;24.704;2023-02-19T17:50:50;-5.80;99.90
45715;DHT22;31430;61.646;24.704;2023-02-19T17:53:17;-5.90;99.90
45715;DHT22;31430;61.646;24.704;2023-02-19T17:55:43;-5.90;99.90
45715;DHT22;31430;61.646;24.704;2023-02-19T17:58:08;-5.90;99.90
45715;DHT22;31430;61.646;24.704;2023-02-19T18:00:34;-6.00;99.90
45715;DHT22;31430;61.646;24.704;2023-02-19T18:03:01;-6.10;99.90
45715;DHT22;31430;61.646;24.704;2023-02-19T18:05:27;-6.20;99.90
45715;DHT22;31430;61.646;24.704;2023-02-19T18:07:53;-6.10;99.90
45715;DHT22;31430;61.646;24.704;2023-02-19T18:10:20;-6.20;99.90
45715;DHT22;31430;61.646;24.704;2023-02-19T18:12:48;-6.20;99.90
45715;DHT22;31430;61.646;24.704;2023-02-19T18:15:22;-6.30;99.90